Harbor Emperor — WCY6430 — position and weather

sailwx.info

Track history (hours):
 
Tides and Currents Weather Stations Pressure Air Temp Water Temp Dewpoint Dewpoint Depression Visibility Wind Speed Wind Dir Waves Ship Positions

Harbor Emperor

Owner: BLUE & GOLD FLEET, SAN FRANCISCO, CA. More information available from US FCC via Universal Licensing System and Coast Guard Vessel Documentation Center.

Last reported at 2015-May-29 01:24 UTC. Time now 2015-May-29 16:21 UTC.
Position N 37°49' W 122°25'.

Length 31 m.

Type: Passenger vessel. MMSI: 366985270.

Date/timePositionNaut miles runAvg speedWind from/ knotsBaromVisibWave heightAir tempDewpointWater temp
2015-May-29 01:24N 37°49' W 122°25'0 0.1
2015-May-29 00:34N 37°49' W 122°25'1 1.2
2015-May-28 23:33N 37°50' W 122°25'1 1.3
2015-May-28 22:33N 37°49' W 122°25'3 2.9
2015-May-28 21:33N 37°49' W 122°28'3 2.9
2015-May-28 20:33N 37°49' W 122°25'3 2.7
2015-May-28 19:33N 37°49' W 122°28'3 3.2
2015-May-28 18:34N 37°49' W 122°24'1 0.6
2015-May-28 17:33N 37°49' W 122°25'0 0.0
2015-May-28 16:33N 37°49' W 122°25'0 0.0
2015-May-28 15:33N 37°49' W 122°25'0 0.0
2015-May-28 14:33N 37°49' W 122°25'0 0.0
2015-May-28 13:33N 37°49' W 122°25'0 0.0
2015-May-28 12:33N 37°49' W 122°25'0 0.0
2015-May-28 11:33N 37°49' W 122°25'0 0.0
2015-May-28 10:33N 37°49' W 122°25'0 0.0
2015-May-28 09:33N 37°49' W 122°25'0 0.0
2015-May-28 08:33N 37°49' W 122°25'0 0.0
2015-May-28 07:33N 37°49' W 122°25'0 0.0
2015-May-28 06:33N 37°49' W 122°25'0 0.0
2015-May-28 05:33N 37°49' W 122°25'0 0.0
2015-May-28 04:33N 37°49' W 122°25'0 0.0
2015-May-28 03:33N 37°49' W 122°25'0 0.0
2015-May-28 02:32N 37°49' W 122°25'0 0.0
2015-May-28 01:33N 37°49' W 122°25'0 0.1
2015-May-28 00:34N 37°49' W 122°25'1 1.2
2015-May-27 23:33N 37°50' W 122°25'1 1.2
2015-May-27 22:33N 37°49' W 122°25'3 2.6
2015-May-27 21:33N 37°49' W 122°28'3 2.6
2015-May-27 20:33N 37°49' W 122°25'3 2.9
2015-May-27 19:33N 37°49' W 122°28'3 3.1
2015-May-27 18:33N 37°49' W 122°24'0 0.4
2015-May-27 17:33N 37°49' W 122°25'0 0.0
2015-May-27 16:33N 37°49' W 122°25'0 0.0
2015-May-27 15:33N 37°49' W 122°25'0 0.0
2015-May-27 14:33N 37°49' W 122°25'0 0.0
2015-May-27 13:33N 37°49' W 122°25'0 0.0
2015-May-27 12:33N 37°49' W 122°25'0 0.0
2015-May-27 11:33N 37°49' W 122°25'0 0.0
2015-May-27 10:33N 37°49' W 122°25'0 0.0
2015-May-27 09:33N 37°49' W 122°25'0 0.0
2015-May-27 08:33N 37°49' W 122°25'0 0.0
2015-May-27 07:33N 37°49' W 122°25'0 0.0
2015-May-27 06:33N 37°49' W 122°25'0 0.0
2015-May-27 05:33N 37°49' W 122°25'0 0.0
2015-May-27 04:33N 37°49' W 122°25'0 0.0
2015-May-27 03:33N 37°49' W 122°25'0 0.0
2015-May-27 02:33N 37°49' W 122°25'0 0.0
2015-May-27 01:33N 37°49' W 122°25'0 0.1
2015-May-27 00:33N 37°49' W 122°25'1 1.2
2015-May-26 23:34N 37°50' W 122°25'1 1.3
2015-May-26 22:33N 37°49' W 122°25'2 2.4
2015-May-26 21:33N 37°49' W 122°28'2 2.4
2015-May-26 20:33N 37°49' W 122°25'2 2.5
2015-May-26 19:33N 37°49' W 122°28'3 2.7
2015-May-26 18:33N 37°49' W 122°24'0 0.3
2015-May-26 17:32N 37°49' W 122°25'0 0.0
2015-May-26 01:21N 37°49' W 122°25'0 0.2
2015-May-26 00:33N 37°49' W 122°25'4 3.2
2015-May-25 23:26N 37°52' W 122°26'1 1.6
2015-May-25 22:33N 37°51' W 122°26'1 1.2
2015-May-25 21:30N 37°50' W 122°26'1 1.4
2015-May-25 20:33N 37°49' W 122°25'4 2.9
2015-May-25 19:17N 37°52' W 122°26'4 5.1
2015-May-25 18:33N 37°49' W 122°24'4 4.2
2015-May-25 17:33N 37°52' W 122°27'5 5.0
2015-May-25 16:33N 37°48' W 122°24'1 0.1
2015-May-25 01:33N 37°49' W 122°25'0 0.1
2015-May-25 00:33N 37°49' W 122°25'4 3.2
2015-May-24 23:23N 37°52' W 122°26'1 1.7
2015-May-24 22:33N 37°51' W 122°27'2 1.5
2015-May-24 21:32N 37°49' W 122°26'1 1.1
2015-May-24 20:33N 37°49' W 122°25'4 3.0
2015-May-24 19:18N 37°52' W 122°26'4 5.1
2015-May-24 18:33N 37°49' W 122°24'4 4.4
2015-May-24 17:33N 37°52' W 122°27'4 4.3
2015-May-24 16:33N 37°49' W 122°25'0 0.1
2015-May-24 15:34N 37°49' W 122°25'0 0.0
2015-May-24 01:32N 37°49' W 122°25'0 0.2
2015-May-24 00:33N 37°49' W 122°25'4 3.2
2015-May-23 23:25N 37°52' W 122°26'1 1.5
2015-May-23 22:33N 37°51' W 122°27'2 1.6
2015-May-23 21:33N 37°50' W 122°26'1 1.2
2015-May-23 20:33N 37°49' W 122°25'4 2.9
2015-May-23 19:16N 37°52' W 122°26'4 5.2
2015-May-23 18:34N 37°49' W 122°25'4 3.8
2015-May-23 17:33N 37°52' W 122°26'4 3.8
2015-May-23 16:34N 37°49' W 122°25'0 0.1
2015-May-23 15:31N 37°49' W 122°25'0 0.0
2015-May-23 02:33N 37°49' W 122°25'2 1.7
2015-May-23 01:33N 37°50' W 122°26'3 2.5
2015-May-23 00:33N 37°51' W 122°29'4 3.4
2015-May-22 23:20N 37°49' W 122°25'4 4.7
2015-May-22 22:32N 37°51' W 122°28'3 2.9
2015-May-22 21:32N 37°49' W 122°25'1 0.6
2015-May-22 20:20N 37°49' W 122°25'3 3.5
2015-May-22 19:33N 37°50' W 122°27'1 1.3
2015-May-22 18:27N 37°51' W 122°29'4 4.5
2015-May-22 17:30N 37°49' W 122°25'2 0.1
2015-May-22 03:33N 37°50' W 122°27'2 2.0
2015-May-22 02:33N 37°49' W 122°25'2 2.2
2015-May-22 01:33N 37°50' W 122°27'2 2.0
2015-May-22 00:32N 37°51' W 122°29'4 3.7
2015-May-21 23:33N 37°49' W 122°25'4 3.6
2015-May-21 22:33N 37°51' W 122°29'4 3.9
2015-May-21 21:33N 37°49' W 122°25'0 0.3
2015-May-21 20:33N 37°49' W 122°25'2 2.2
2015-May-21 19:31N 37°50' W 122°27'2 2.0
2015-May-21 18:33N 37°51' W 122°29'4 4.2
2015-May-21 17:33N 37°49' W 122°25'0 0.0
2015-May-21 01:25N 37°49' W 122°25'0 0.1
2015-May-21 00:33N 37°49' W 122°25'1 1.2
2015-May-20 23:33N 37°50' W 122°25'1 1.3
2015-May-20 22:33N 37°49' W 122°25'2 2.4
2015-May-20 21:33N 37°49' W 122°28'2 2.4
2015-May-20 20:33N 37°49' W 122°25'2 1.9
2015-May-20 19:31N 37°49' W 122°27'3 2.7
2015-May-20 18:34N 37°49' W 122°24'1 0.6
2015-May-20 17:33N 37°49' W 122°25'0 0.0
2015-May-20 01:25N 37°49' W 122°25'0 0.1
2015-May-20 00:33N 37°49' W 122°25'1 1.2
2015-May-19 23:33N 37°50' W 122°25'1 1.3
2015-May-19 22:33N 37°49' W 122°25'2 2.2
2015-May-19 21:33N 37°49' W 122°27'2 2.2
2015-May-19 20:33N 37°49' W 122°25'2 2.0
2015-May-19 19:33N 37°49' W 122°27'2 2.3
2015-May-19 18:33N 37°49' W 122°24'1 0.6
2015-May-19 17:33N 37°49' W 122°25'0 0.0
2015-May-19 01:27N 37°49' W 122°25'  
Track history (hours):
 
Tides and Currents Weather Stations Pressure Air Temp Water Temp Dewpoint Dewpoint Depression Visibility Wind Speed Wind Dir Waves Ship Positions

Harbor Emperor

Owner: BLUE & GOLD FLEET, SAN FRANCISCO, CA. More information available from US FCC via Universal Licensing System and Coast Guard Vessel Documentation Center.

Last reported at 2015-May-29 01:24 UTC. Time now 2015-May-29 16:21 UTC.
Position N 37°49' W 122°25'.

Length 31 m.

Type: Passenger vessel. MMSI: 366985270.

Date/timePositionNaut miles runAvg speedWind from/ knotsBaromVisibWave heightAir tempDewpointWater temp
2015-May-29 01:24N 37°49' W 122°25'0 0.1
2015-May-29 00:34N 37°49' W 122°25'1 1.2
2015-May-28 23:33N 37°50' W 122°25'1 1.3
2015-May-28 22:33N 37°49' W 122°25'3 2.9
2015-May-28 21:33N 37°49' W 122°28'3 2.9
2015-May-28 20:33N 37°49' W 122°25'3 2.7
2015-May-28 19:33N 37°49' W 122°28'3 3.2
2015-May-28 18:34N 37°49' W 122°24'1 0.6
2015-May-28 17:33N 37°49' W 122°25'0 0.0
2015-May-28 16:33N 37°49' W 122°25'0 0.0
2015-May-28 15:33N 37°49' W 122°25'0 0.0
2015-May-28 14:33N 37°49' W 122°25'0 0.0
2015-May-28 13:33N 37°49' W 122°25'0 0.0
2015-May-28 12:33N 37°49' W 122°25'0 0.0
2015-May-28 11:33N 37°49' W 122°25'0 0.0
2015-May-28 10:33N 37°49' W 122°25'0 0.0
2015-May-28 09:33N 37°49' W 122°25'0 0.0
2015-May-28 08:33N 37°49' W 122°25'0 0.0
2015-May-28 07:33N 37°49' W 122°25'0 0.0
2015-May-28 06:33N 37°49' W 122°25'0 0.0
2015-May-28 05:33N 37°49' W 122°25'0 0.0
2015-May-28 04:33N 37°49' W 122°25'0 0.0
2015-May-28 03:33N 37°49' W 122°25'0 0.0
2015-May-28 02:32N 37°49' W 122°25'0 0.0
2015-May-28 01:33N 37°49' W 122°25'0 0.1
2015-May-28 00:34N 37°49' W 122°25'1 1.2
2015-May-27 23:33N 37°50' W 122°25'1 1.2
2015-May-27 22:33N 37°49' W 122°25'3 2.6
2015-May-27 21:33N 37°49' W 122°28'3 2.6
2015-May-27 20:33N 37°49' W 122°25'3 2.9
2015-May-27 19:33N 37°49' W 122°28'3 3.1
2015-May-27 18:33N 37°49' W 122°24'0 0.4
2015-May-27 17:33N 37°49' W 122°25'0 0.0
2015-May-27 16:33N 37°49' W 122°25'0 0.0
2015-May-27 15:33N 37°49' W 122°25'0 0.0
2015-May-27 14:33N 37°49' W 122°25'0 0.0
2015-May-27 13:33N 37°49' W 122°25'0 0.0
2015-May-27 12:33N 37°49' W 122°25'0 0.0
2015-May-27 11:33N 37°49' W 122°25'0 0.0
2015-May-27 10:33N 37°49' W 122°25'0 0.0
2015-May-27 09:33N 37°49' W 122°25'0 0.0
2015-May-27 08:33N 37°49' W 122°25'0 0.0
2015-May-27 07:33N 37°49' W 122°25'0 0.0
2015-May-27 06:33N 37°49' W 122°25'0 0.0
2015-May-27 05:33N 37°49' W 122°25'0 0.0
2015-May-27 04:33N 37°49' W 122°25'0 0.0
2015-May-27 03:33N 37°49' W 122°25'0 0.0
2015-May-27 02:33N 37°49' W 122°25'0 0.0
2015-May-27 01:33N 37°49' W 122°25'0 0.1
2015-May-27 00:33N 37°49' W 122°25'1 1.2
2015-May-26 23:34N 37°50' W 122°25'1 1.3
2015-May-26 22:33N 37°49' W 122°25'2 2.4
2015-May-26 21:33N 37°49' W 122°28'2 2.4
2015-May-26 20:33N 37°49' W 122°25'2 2.5
2015-May-26 19:33N 37°49' W 122°28'3 2.7
2015-May-26 18:33N 37°49' W 122°24'0 0.3
2015-May-26 17:32N 37°49' W 122°25'0 0.0
2015-May-26 01:21N 37°49' W 122°25'0 0.2
2015-May-26 00:33N 37°49' W 122°25'4 3.2
2015-May-25 23:26N 37°52' W 122°26'1 1.6
2015-May-25 22:33N 37°51' W 122°26'1 1.2
2015-May-25 21:30N 37°50' W 122°26'1 1.4
2015-May-25 20:33N 37°49' W 122°25'4 2.9
2015-May-25 19:17N 37°52' W 122°26'4 5.1
2015-May-25 18:33N 37°49' W 122°24'4 4.2
2015-May-25 17:33N 37°52' W 122°27'5 5.0
2015-May-25 16:33N 37°48' W 122°24'1 0.1
2015-May-25 01:33N 37°49' W 122°25'0 0.1
2015-May-25 00:33N 37°49' W 122°25'4 3.2
2015-May-24 23:23N 37°52' W 122°26'1 1.7
2015-May-24 22:33N 37°51' W 122°27'2 1.5
2015-May-24 21:32N 37°49' W 122°26'1 1.1
2015-May-24 20:33N 37°49' W 122°25'4 3.0
2015-May-24 19:18N 37°52' W 122°26'4 5.1
2015-May-24 18:33N 37°49' W 122°24'4 4.4
2015-May-24 17:33N 37°52' W 122°27'4 4.3
2015-May-24 16:33N 37°49' W 122°25'0 0.1
2015-May-24 15:34N 37°49' W 122°25'0 0.0
2015-May-24 01:32N 37°49' W 122°25'0 0.2
2015-May-24 00:33N 37°49' W 122°25'4 3.2
2015-May-23 23:25N 37°52' W 122°26'1 1.5
2015-May-23 22:33N 37°51' W 122°27'2 1.6
2015-May-23 21:33N 37°50' W 122°26'1 1.2
2015-May-23 20:33N 37°49' W 122°25'4 2.9
2015-May-23 19:16N 37°52' W 122°26'4 5.2
2015-May-23 18:34N 37°49' W 122°25'4 3.8
2015-May-23 17:33N 37°52' W 122°26'4 3.8
2015-May-23 16:34N 37°49' W 122°25'0 0.1
2015-May-23 15:31N 37°49' W 122°25'0 0.0
2015-May-23 02:33N 37°49' W 122°25'2 1.7
2015-May-23 01:33N 37°50' W 122°26'3 2.5
2015-May-23 00:33N 37°51' W 122°29'4 3.4
2015-May-22 23:20N 37°49' W 122°25'4 4.7
2015-May-22 22:32N 37°51' W 122°28'3 2.9
2015-May-22 21:32N 37°49' W 122°25'1 0.6
2015-May-22 20:20N 37°49' W 122°25'3 3.5
2015-May-22 19:33N 37°50' W 122°27'1 1.3
2015-May-22 18:27N 37°51' W 122°29'4 4.5
2015-May-22 17:30N 37°49' W 122°25'2 0.1
2015-May-22 03:33N 37°50' W 122°27'2 2.0
2015-May-22 02:33N 37°49' W 122°25'2 2.2
2015-May-22 01:33N 37°50' W 122°27'2 2.0
2015-May-22 00:32N 37°51' W 122°29'4 3.7
2015-May-21 23:33N 37°49' W 122°25'4 3.6
2015-May-21 22:33N 37°51' W 122°29'4 3.9
2015-May-21 21:33N 37°49' W 122°25'0 0.3
2015-May-21 20:33N 37°49' W 122°25'2 2.2
2015-May-21 19:31N 37°50' W 122°27'2 2.0
2015-May-21 18:33N 37°51' W 122°29'4 4.2
2015-May-21 17:33N 37°49' W 122°25'0 0.0
2015-May-21 01:25N 37°49' W 122°25'0 0.1
2015-May-21 00:33N 37°49' W 122°25'1 1.2
2015-May-20 23:33N 37°50' W 122°25'1 1.3
2015-May-20 22:33N 37°49' W 122°25'2 2.4
2015-May-20 21:33N 37°49' W 122°28'2 2.4
2015-May-20 20:33N 37°49' W 122°25'2 1.9
2015-May-20 19:31N 37°49' W 122°27'3 2.7
2015-May-20 18:34N 37°49' W 122°24'1 0.6
2015-May-20 17:33N 37°49' W 122°25'0 0.0
2015-May-20 01:25N 37°49' W 122°25'0 0.1
2015-May-20 00:33N 37°49' W 122°25'1 1.2
2015-May-19 23:33N 37°50' W 122°25'1 1.3
2015-May-19 22:33N 37°49' W 122°25'2 2.2
2015-May-19 21:33N 37°49' W 122°27'2 2.2
2015-May-19 20:33N 37°49' W 122°25'2 2.0
2015-May-19 19:33N 37°49' W 122°27'2 2.3
2015-May-19 18:33N 37°49' W 122°24'1 0.6
2015-May-19 17:33N 37°49' W 122°25'0 0.0
2015-May-19 01:27N 37°49' W 122°25'  

Dump ship's entire track history